Raleigh County Memorial Airport
KBKW : rendu visible

Aérodrome :











RETROUVEZ-NOUS SUR...

 
LOGIN :

S'inscrire | Disclaimer

   EN    FR    IT 

 









Légende :    VFR   VFR Marginal   IFR   IFR Intensif   IFR Très Intensif
Visi : 
Plafond : 
>= 8 km
>= 3000ft
5 à 8 km
1000 à 3000 ft
1500m à 5 km
500 à 1000 ft
800 à 1500m
200 à 500 ft
< 800m
< 200 ft
Symboles :   Orages  Brouillard  Fortes neiges  Fortes précipitations  Vent > 20 kt






- Altitude de l'aérodrome : 2504 ft
- Code IATA : BKW


KBKW - Raleigh County Memorial

DERNIER METAR :
  • 150751Z AUTO 00000KT 10SM CLR M01/M08 A3024 RMK AO2 SLP257 T10061078

METARs EXPIRÉS :
  • 150651Z AUTO 00000KT 10SM CLR 00/M08 A3024 RMK AO2 SLP258 T00001078
  • 150551Z AUTO 18004KT 10SM CLR M02/M07 A3026 RMK AO2 SLP268 T10171072 10011 21033 50003

TAF KBKW
Valide du 15 à 06h jusqu'au 16 à 06h UTC


150527Z 1506/1606 00000KT P6SM BKN200
FM151100 36003KT P6SM SCT200



MET'MAP, la Météo Aéronautique d'un coup d'oeil ! - Copyright ORBIFLY Décembre 2007 - Disclaimer

ORBIFLY MET'MAP TEAM :

Programmation & Développement : Alexandra Zaïnal
Conception & Développement : Baudouin d'Aumeries
Co-Programmation & Développement : Marc-Olivier Méhu
Soutien technique & logistique : Manuel Goepfert

Contact : metmap@orbifly.com




SOURCES & CREDITS :

   NOAA       Earth
Advisory